BOV620 SKBO-SLVR
Flight info
| Callsign | BOV620 |
|---|---|
| Flight time | 3h 57m |
| Altitude | 31000 |
| Route | POVSO5U POVSO DCT PABON UP530 LET UP525 RCO UN420 PAKES |
| Aircraft | B738/M-SDE2E3FGHIRWXY/LB1 |
Departure
| Time | 2026-05-07 02:35 |
|---|---|
| Airport | El Dorado International Airport (SKBO) |
Arrival
| Time | 2026-05-07 06:33 |
|---|---|
| Airport | Viru Viru International Airport (SLVR) |
| Time | Latitude | Longitude | Altitude | Speed | Heading |
|---|---|---|---|---|---|
| 2026-05-07 01:39 | 4.70074 | -74.14435 | 8368 ft | 0 kts | 133° |
| 2026-05-07 02:18 | 4.70084 | -74.14445 | 8368 ft | 2 kts | 133° |
| 2026-05-07 02:19 | 4.70095 | -74.14457 | 8368 ft | 2 kts | 133° |
| 2026-05-07 02:19 | 4.70106 | -74.14469 | 8368 ft | 2 kts | 131° |
| 2026-05-07 02:19 | 4.70114 | -74.14483 | 8368 ft | 2 kts | 91° |
| 2026-05-07 02:19 | 4.70110 | -74.14493 | 8368 ft | 1 kts | 40° |
| 2026-05-07 02:20 | 4.70107 | -74.14495 | 8368 ft | 0 kts | 37° |
| 2026-05-07 02:22 | 4.70108 | -74.14495 | 8368 ft | 0 kts | 37° |
| 2026-05-07 02:24 | 4.70119 | -74.14486 | 8368 ft | 7 kts | 37° |
| 2026-05-07 02:24 | 4.70164 | -74.14450 | 8368 ft | 8 kts | 39° |
| 2026-05-07 02:24 | 4.70208 | -74.14415 | 8368 ft | 8 kts | 38° |
| 2026-05-07 02:24 | 4.70251 | -74.14382 | 8368 ft | 8 kts | 37° |
| 2026-05-07 02:25 | 4.70291 | -74.14351 | 8368 ft | 7 kts | 37° |
| 2026-05-07 02:25 | 4.70330 | -74.14321 | 8368 ft | 7 kts | 37° |
| 2026-05-07 02:25 | 4.70366 | -74.14291 | 8368 ft | 7 kts | 57° |
| 2026-05-07 02:25 | 4.70364 | -74.14246 | 8368 ft | 7 kts | 114° |
| 2026-05-07 02:26 | 4.70330 | -74.14193 | 8368 ft | 11 kts | 127° |
| 2026-05-07 02:26 | 4.70282 | -74.14133 | 8368 ft | 12 kts | 128° |
| 2026-05-07 02:26 | 4.70218 | -74.14048 | 8368 ft | 18 kts | 127° |
| 2026-05-07 02:26 | 4.70142 | -74.13949 | 8368 ft | 18 kts | 127° |
| 2026-05-07 02:27 | 4.70070 | -74.13854 | 8368 ft | 17 kts | 127° |
| 2026-05-07 02:27 | 4.70003 | -74.13766 | 8368 ft | 16 kts | 127° |
| 2026-05-07 02:27 | 4.69939 | -74.13681 | 8368 ft | 15 kts | 127° |
| 2026-05-07 02:27 | 4.69880 | -74.13602 | 8368 ft | 14 kts | 127° |
| 2026-05-07 02:28 | 4.69824 | -74.13527 | 8368 ft | 13 kts | 127° |
| 2026-05-07 02:28 | 4.69771 | -74.13457 | 8368 ft | 12 kts | 127° |
| 2026-05-07 02:28 | 4.69719 | -74.13389 | 8368 ft | 12 kts | 127° |
| 2026-05-07 02:28 | 4.69670 | -74.13323 | 8368 ft | 12 kts | 127° |
| 2026-05-07 02:29 | 4.69623 | -74.13261 | 8368 ft | 11 kts | 128° |
| 2026-05-07 02:29 | 4.69576 | -74.13201 | 8368 ft | 11 kts | 128° |
| 2026-05-07 02:29 | 4.69530 | -74.13139 | 8368 ft | 11 kts | 126° |
| 2026-05-07 02:29 | 4.69483 | -74.13075 | 8368 ft | 12 kts | 126° |
| 2026-05-07 02:30 | 4.69425 | -74.12999 | 8368 ft | 14 kts | 129° |
| 2026-05-07 02:30 | 4.69368 | -74.12926 | 8368 ft | 13 kts | 127° |
| 2026-05-07 02:30 | 4.69314 | -74.12856 | 8368 ft | 12 kts | 127° |
| 2026-05-07 02:30 | 4.69263 | -74.12788 | 8368 ft | 12 kts | 127° |
| 2026-05-07 02:31 | 4.69218 | -74.12720 | 8368 ft | 11 kts | 107° |
| 2026-05-07 02:31 | 4.69222 | -74.12643 | 8368 ft | 11 kts | 78° |
| 2026-05-07 02:31 | 4.69246 | -74.12572 | 8368 ft | 11 kts | 52° |
| 2026-05-07 02:31 | 4.69303 | -74.12536 | 8368 ft | 9 kts | 359° |
| 2026-05-07 02:32 | 4.69331 | -74.12551 | 8368 ft | 0 kts | 307° |
| 2026-05-07 02:34 | 4.69341 | -74.12564 | 8368 ft | 8 kts | 307° |
| 2026-05-07 02:34 | 4.69472 | -74.12738 | 8368 ft | 61 kts | 307° |
| 2026-05-07 02:35 | 4.69846 | -74.13235 | 8368 ft | 116 kts | 307° |
| 2026-05-07 02:35 | 4.70432 | -74.14011 | 8368 ft | 163 kts | 308° |
| 2026-05-07 02:35 | 4.71196 | -74.15011 | 8531 ft | 189 kts | 306° |
| 2026-05-07 02:35 | 4.71989 | -74.16063 | 9187 ft | 189 kts | 306° |
| 2026-05-07 02:36 | 4.72767 | -74.17101 | 9916 ft | 188 kts | 306° |
| 2026-05-07 02:36 | 4.73580 | -74.18171 | 10408 ft | 197 kts | 306° |
| 2026-05-07 02:36 | 4.74451 | -74.19320 | 10627 ft | 216 kts | 306° |
| 2026-05-07 02:36 | 4.75266 | -74.20631 | 10829 ft | 234 kts | 289° |
| 2026-05-07 02:37 | 4.75505 | -74.22310 | 11011 ft | 255 kts | 269° |
| 2026-05-07 02:37 | 4.75330 | -74.24137 | 11337 ft | 271 kts | 259° |
| 2026-05-07 02:37 | 4.74926 | -74.26041 | 11719 ft | 287 kts | 254° |
| 2026-05-07 02:37 | 4.74444 | -74.28052 | 11979 ft | 308 kts | 254° |
| 2026-05-07 02:38 | 4.73966 | -74.30256 | 12028 ft | 335 kts | 256° |
| 2026-05-07 02:38 | 4.73491 | -74.32601 | 12027 ft | 349 kts | 256° |
| 2026-05-07 02:38 | 4.73006 | -74.35007 | 12017 ft | 354 kts | 256° |
| 2026-05-07 02:38 | 4.72509 | -74.37400 | 12043 ft | 356 kts | 253° |
| 2026-05-07 02:39 | 4.71522 | -74.39685 | 12745 ft | 351 kts | 233° |
| 2026-05-07 02:39 | 4.69885 | -74.41461 | 13476 ft | 346 kts | 214° |
| 2026-05-07 02:39 | 4.67812 | -74.42559 | 14123 ft | 342 kts | 195° |
| 2026-05-07 02:39 | 4.65478 | -74.42885 | 14799 ft | 340 kts | 175° |
| 2026-05-07 02:40 | 4.63171 | -74.42385 | 15442 ft | 341 kts | 156° |
| 2026-05-07 02:40 | 4.61146 | -74.41147 | 16074 ft | 344 kts | 141° |
| 2026-05-07 02:40 | 4.59316 | -74.39579 | 16697 ft | 347 kts | 138° |
| 2026-05-07 02:40 | 4.57516 | -74.37949 | 17302 ft | 351 kts | 137° |
| 2026-05-07 02:41 | 4.55703 | -74.36292 | 17892 ft | 354 kts | 137° |
| 2026-05-07 02:41 | 4.53836 | -74.34658 | 18480 ft | 357 kts | 140° |
| 2026-05-07 02:41 | 4.51894 | -74.33083 | 19045 ft | 361 kts | 142° |
| 2026-05-07 02:41 | 4.49870 | -74.31568 | 19601 ft | 364 kts | 143° |
| 2026-05-07 02:42 | 4.47777 | -74.30113 | 20143 ft | 368 kts | 145° |
| 2026-05-07 02:42 | 4.45632 | -74.28707 | 20683 ft | 370 kts | 147° |
| 2026-05-07 02:42 | 4.43437 | -74.27328 | 21201 ft | 374 kts | 147° |
| 2026-05-07 02:42 | 4.41213 | -74.25962 | 21708 ft | 377 kts | 148° |
| 2026-05-07 02:43 | 4.38969 | -74.24595 | 22197 ft | 380 kts | 148° |
| 2026-05-07 02:43 | 4.36693 | -74.23214 | 22679 ft | 382 kts | 148° |
| 2026-05-07 02:43 | 4.34413 | -74.21838 | 23143 ft | 385 kts | 148° |
| 2026-05-07 02:43 | 4.32096 | -74.20443 | 23606 ft | 388 kts | 148° |
| 2026-05-07 02:44 | 4.30559 | -74.19519 | 23909 ft | 389 kts | 148° |
| 2026-05-07 02:44 | 4.28226 | -74.18119 | 24344 ft | 392 kts | 149° |
| 2026-05-07 02:44 | 4.25080 | -74.16234 | 24907 ft | 396 kts | 149° |
| 2026-05-07 02:44 | 4.22735 | -74.14830 | 25308 ft | 398 kts | 149° |
| 2026-05-07 02:45 | 4.20351 | -74.13404 | 25693 ft | 401 kts | 149° |
| 2026-05-07 02:45 | 4.17943 | -74.11965 | 26061 ft | 404 kts | 148° |
| 2026-05-07 02:45 | 4.15522 | -74.10517 | 26442 ft | 406 kts | 148° |
| 2026-05-07 02:45 | 4.13093 | -74.09064 | 26825 ft | 408 kts | 149° |
| 2026-05-07 02:46 | 4.11435 | -74.08074 | 27060 ft | 410 kts | 149° |
| 2026-05-07 02:46 | 4.09006 | -74.06623 | 27399 ft | 412 kts | 149° |
| 2026-05-07 02:46 | 4.06533 | -74.05145 | 27743 ft | 415 kts | 148° |
| 2026-05-07 02:46 | 4.04049 | -74.03662 | 28071 ft | 417 kts | 148° |
| 2026-05-07 02:47 | 4.01555 | -74.02173 | 28466 ft | 417 kts | 148° |
| 2026-05-07 02:47 | 3.99065 | -74.00686 | 28939 ft | 415 kts | 148° |
| 2026-05-07 02:47 | 3.96587 | -73.99206 | 29362 ft | 414 kts | 148° |
| 2026-05-07 02:47 | 3.94115 | -73.97730 | 29778 ft | 413 kts | 148° |
| 2026-05-07 02:48 | 3.91642 | -73.96254 | 30179 ft | 413 kts | 148° |
| 2026-05-07 02:48 | 3.89173 | -73.94779 | 30574 ft | 412 kts | 148° |
| 2026-05-07 02:48 | 3.86700 | -73.93303 | 30842 ft | 414 kts | 148° |
| 2026-05-07 02:48 | 3.84220 | -73.91823 | 30888 ft | 416 kts | 148° |
| 2026-05-07 02:49 | 3.79284 | -73.88877 | 30898 ft | 413 kts | 148° |
| 2026-05-07 02:49 | 3.74343 | -73.85929 | 30899 ft | 413 kts | 148° |
| 2026-05-07 02:50 | 3.69405 | -73.82982 | 30899 ft | 413 kts | 148° |
| 2026-05-07 02:50 | 3.64479 | -73.80043 | 30899 ft | 411 kts | 148° |
| 2026-05-07 02:51 | 3.59556 | -73.77107 | 30899 ft | 412 kts | 148° |
| 2026-05-07 02:51 | 3.54631 | -73.74169 | 30900 ft | 412 kts | 148° |
| 2026-05-07 02:52 | 3.49742 | -73.71253 | 30899 ft | 412 kts | 148° |
| 2026-05-07 02:52 | 3.44816 | -73.68316 | 30899 ft | 411 kts | 148° |
| 2026-05-07 02:53 | 3.39892 | -73.65381 | 30900 ft | 412 kts | 148° |
| 2026-05-07 02:53 | 3.34962 | -73.62442 | 30899 ft | 412 kts | 148° |
| 2026-05-07 02:54 | 3.30034 | -73.59503 | 30900 ft | 412 kts | 148° |
| 2026-05-07 02:54 | 3.25129 | -73.56580 | 30899 ft | 412 kts | 148° |
| 2026-05-07 02:55 | 3.20198 | -73.53642 | 30899 ft | 413 kts | 148° |
| 2026-05-07 02:55 | 3.15264 | -73.50702 | 30899 ft | 412 kts | 148° |
| 2026-05-07 02:56 | 3.10335 | -73.47765 | 30899 ft | 411 kts | 148° |
| 2026-05-07 02:56 | 3.05440 | -73.44849 | 30899 ft | 411 kts | 148° |
| 2026-05-07 02:57 | 3.00524 | -73.41920 | 30899 ft | 411 kts | 149° |
| 2026-05-07 02:57 | 2.95610 | -73.38993 | 30899 ft | 411 kts | 149° |
| 2026-05-07 02:58 | 2.90688 | -73.36062 | 30899 ft | 411 kts | 149° |
| 2026-05-07 02:58 | 2.85760 | -73.33128 | 30899 ft | 411 kts | 149° |
| 2026-05-07 02:59 | 2.80874 | -73.30219 | 30900 ft | 411 kts | 148° |
| 2026-05-07 02:59 | 2.75962 | -73.27294 | 30899 ft | 411 kts | 148° |
| 2026-05-07 03:00 | 2.71043 | -73.24366 | 30900 ft | 411 kts | 148° |
| 2026-05-07 03:00 | 2.66122 | -73.21437 | 30899 ft | 412 kts | 148° |
| 2026-05-07 03:01 | 2.61204 | -73.18509 | 30899 ft | 411 kts | 148° |
| 2026-05-07 03:01 | 2.56295 | -73.15587 | 30899 ft | 410 kts | 149° |
| 2026-05-07 03:02 | 2.51384 | -73.12665 | 30899 ft | 410 kts | 149° |
| 2026-05-07 03:02 | 2.46465 | -73.09738 | 30899 ft | 411 kts | 148° |
| 2026-05-07 03:03 | 2.41522 | -73.06771 | 30899 ft | 424 kts | 150° |
| 2026-05-07 03:03 | 2.36381 | -73.03726 | 30908 ft | 431 kts | 151° |
| 2026-05-07 03:04 | 2.31296 | -73.00716 | 30899 ft | 419 kts | 149° |
| 2026-05-07 03:04 | 2.26321 | -72.97748 | 30892 ft | 417 kts | 150° |
| 2026-05-07 03:05 | 2.21281 | -72.94753 | 30900 ft | 425 kts | 150° |
| 2026-05-07 03:05 | 2.16215 | -72.91741 | 30900 ft | 427 kts | 150° |
| 2026-05-07 03:06 | 2.11109 | -72.88706 | 30899 ft | 426 kts | 150° |
| 2026-05-07 03:06 | 2.06027 | -72.85686 | 30899 ft | 425 kts | 149° |
| 2026-05-07 03:07 | 2.00928 | -72.82653 | 30899 ft | 425 kts | 150° |
| 2026-05-07 03:07 | 1.95815 | -72.79613 | 30899 ft | 428 kts | 150° |
| 2026-05-07 03:08 | 1.90728 | -72.76589 | 30899 ft | 425 kts | 150° |
| 2026-05-07 03:08 | 1.85655 | -72.73573 | 30899 ft | 425 kts | 150° |
| 2026-05-07 03:09 | 1.80556 | -72.70542 | 30900 ft | 427 kts | 150° |
| 2026-05-07 03:09 | 1.75444 | -72.67503 | 30900 ft | 426 kts | 150° |
| 2026-05-07 03:10 | 1.70357 | -72.64480 | 30899 ft | 425 kts | 150° |
| 2026-05-07 03:10 | 1.65286 | -72.61466 | 30899 ft | 426 kts | 150° |
| 2026-05-07 03:11 | 1.60209 | -72.58449 | 30900 ft | 425 kts | 150° |
| 2026-05-07 03:11 | 1.55118 | -72.55424 | 30900 ft | 426 kts | 150° |
| 2026-05-07 03:12 | 1.50015 | -72.52391 | 30899 ft | 426 kts | 150° |
| 2026-05-07 03:12 | 1.44938 | -72.49375 | 30899 ft | 425 kts | 150° |
| 2026-05-07 03:13 | 1.39850 | -72.46352 | 30899 ft | 425 kts | 150° |
| 2026-05-07 03:13 | 1.34789 | -72.43345 | 30899 ft | 426 kts | 150° |
| 2026-05-07 03:14 | 1.29715 | -72.40332 | 30899 ft | 422 kts | 150° |
| 2026-05-07 03:15 | 1.22121 | -72.35821 | 30901 ft | 423 kts | 150° |
| 2026-05-07 03:15 | 1.17095 | -72.32838 | 30899 ft | 418 kts | 149° |
| 2026-05-07 03:16 | 1.12095 | -72.29860 | 30898 ft | 420 kts | 149° |
| 2026-05-07 03:16 | 1.07035 | -72.26854 | 30900 ft | 426 kts | 150° |
| 2026-05-07 03:17 | 1.01947 | -72.23842 | 30899 ft | 421 kts | 149° |
| 2026-05-07 03:17 | 0.96946 | -72.20870 | 30900 ft | 417 kts | 149° |
| 2026-05-07 03:18 | 0.91953 | -72.17902 | 30900 ft | 417 kts | 149° |
| 2026-05-07 03:18 | 0.86968 | -72.14940 | 30899 ft | 416 kts | 149° |
| 2026-05-07 03:19 | 0.81990 | -72.11984 | 30900 ft | 416 kts | 149° |
| 2026-05-07 03:19 | 0.77010 | -72.09027 | 30899 ft | 416 kts | 149° |
| 2026-05-07 03:20 | 0.72061 | -72.06087 | 30900 ft | 416 kts | 149° |
| 2026-05-07 03:20 | 0.67086 | -72.03132 | 30899 ft | 416 kts | 149° |
| 2026-05-07 03:21 | 0.62112 | -72.00179 | 30899 ft | 415 kts | 149° |
| 2026-05-07 03:21 | 0.57114 | -71.97212 | 30899 ft | 415 kts | 149° |
| 2026-05-07 03:22 | 0.52174 | -71.94277 | 30899 ft | 415 kts | 149° |
| 2026-05-07 03:22 | 0.47200 | -71.91324 | 30899 ft | 416 kts | 150° |
| 2026-05-07 03:23 | 0.42227 | -71.88372 | 30899 ft | 415 kts | 150° |
| 2026-05-07 03:23 | 0.37262 | -71.85424 | 30899 ft | 415 kts | 150° |
| 2026-05-07 03:24 | 0.32286 | -71.82468 | 30900 ft | 417 kts | 150° |
| 2026-05-07 03:24 | 0.27308 | -71.79513 | 30899 ft | 415 kts | 150° |
| 2026-05-07 03:25 | 0.22343 | -71.76567 | 30899 ft | 414 kts | 149° |
| 2026-05-07 03:25 | 0.17407 | -71.73636 | 30899 ft | 415 kts | 149° |
| 2026-05-07 03:26 | 0.12404 | -71.70663 | 30899 ft | 422 kts | 150° |
| 2026-05-07 03:26 | 0.07312 | -71.67641 | 30900 ft | 427 kts | 150° |
| 2026-05-07 03:27 | 0.02216 | -71.64616 | 30899 ft | 425 kts | 150° |
| 2026-05-07 03:27 | -0.02880 | -71.61591 | 30899 ft | 426 kts | 150° |
| 2026-05-07 03:28 | -0.07113 | -71.59077 | 30899 ft | 425 kts | 150° |
| 2026-05-07 03:28 | -0.12197 | -71.56059 | 30899 ft | 425 kts | 150° |
| 2026-05-07 03:29 | -0.17282 | -71.53040 | 30900 ft | 425 kts | 150° |
| 2026-05-07 03:29 | -0.22371 | -71.50018 | 30899 ft | 426 kts | 150° |
| 2026-05-07 03:30 | -0.27447 | -71.47005 | 30899 ft | 427 kts | 150° |
| 2026-05-07 03:30 | -0.32577 | -71.43959 | 30899 ft | 426 kts | 150° |
| 2026-05-07 03:31 | -0.37679 | -71.40929 | 30899 ft | 427 kts | 150° |
| 2026-05-07 03:31 | -0.42784 | -71.37898 | 30899 ft | 426 kts | 150° |
| 2026-05-07 03:32 | -0.47844 | -71.34893 | 30899 ft | 425 kts | 150° |
| 2026-05-07 03:32 | -0.52963 | -71.31854 | 30899 ft | 425 kts | 150° |
| 2026-05-07 03:33 | -0.58037 | -71.28841 | 30899 ft | 427 kts | 150° |
| 2026-05-07 03:33 | -0.63139 | -71.25812 | 30900 ft | 426 kts | 150° |
| 2026-05-07 03:34 | -0.68232 | -71.22788 | 30899 ft | 422 kts | 150° |
| 2026-05-07 03:34 | -0.73274 | -71.19797 | 30899 ft | 419 kts | 150° |
| 2026-05-07 03:35 | -0.78270 | -71.16829 | 30899 ft | 417 kts | 149° |
| 2026-05-07 03:35 | -0.83259 | -71.13865 | 30899 ft | 417 kts | 149° |
| 2026-05-07 03:36 | -0.88263 | -71.10890 | 30899 ft | 418 kts | 150° |
| 2026-05-07 03:36 | -0.93291 | -71.07905 | 30899 ft | 421 kts | 150° |
| 2026-05-07 03:37 | -0.98324 | -71.04917 | 30900 ft | 420 kts | 149° |
| 2026-05-07 03:37 | -1.03305 | -71.01958 | 30899 ft | 419 kts | 149° |
| 2026-05-07 03:38 | -1.08339 | -70.98966 | 30900 ft | 423 kts | 150° |
| 2026-05-07 03:38 | -1.13413 | -70.95953 | 30899 ft | 423 kts | 150° |
| 2026-05-07 03:39 | -1.18482 | -70.92943 | 30899 ft | 424 kts | 150° |
| 2026-05-07 03:39 | -1.23583 | -70.89913 | 30899 ft | 424 kts | 150° |
| 2026-05-07 03:40 | -1.28619 | -70.86921 | 30899 ft | 424 kts | 150° |
| 2026-05-07 03:40 | -1.33690 | -70.83909 | 30899 ft | 424 kts | 150° |
| 2026-05-07 03:41 | -1.38758 | -70.80898 | 30899 ft | 424 kts | 150° |
| 2026-05-07 03:41 | -1.43835 | -70.77881 | 30900 ft | 424 kts | 150° |
| 2026-05-07 03:42 | -1.48895 | -70.74875 | 30899 ft | 422 kts | 150° |
| 2026-05-07 03:42 | -1.53934 | -70.71881 | 30899 ft | 421 kts | 150° |
| 2026-05-07 03:43 | -1.58980 | -70.68883 | 30904 ft | 421 kts | 150° |
| 2026-05-07 03:43 | -1.63980 | -70.65914 | 30898 ft | 415 kts | 149° |
| 2026-05-07 03:44 | -1.68925 | -70.62974 | 30900 ft | 416 kts | 150° |
| 2026-05-07 03:44 | -1.73886 | -70.60024 | 30900 ft | 415 kts | 150° |
| 2026-05-07 03:45 | -1.78837 | -70.57084 | 30899 ft | 411 kts | 149° |
| 2026-05-07 03:45 | -1.83746 | -70.54164 | 30899 ft | 409 kts | 149° |
| 2026-05-07 03:46 | -1.88642 | -70.51253 | 30899 ft | 409 kts | 149° |
| 2026-05-07 03:46 | -1.93543 | -70.48338 | 30899 ft | 409 kts | 149° |
| 2026-05-07 03:47 | -1.98403 | -70.45449 | 30899 ft | 409 kts | 149° |
| 2026-05-07 03:47 | -2.03307 | -70.42532 | 30899 ft | 409 kts | 148° |
| 2026-05-07 03:48 | -2.08199 | -70.39623 | 30899 ft | 409 kts | 148° |
| 2026-05-07 03:48 | -2.13103 | -70.36707 | 30899 ft | 409 kts | 149° |
| 2026-05-07 03:49 | -2.17999 | -70.33795 | 30899 ft | 409 kts | 149° |
| 2026-05-07 03:49 | -2.22899 | -70.30880 | 30899 ft | 409 kts | 149° |
| 2026-05-07 03:50 | -2.27754 | -70.27993 | 30899 ft | 409 kts | 149° |
| 2026-05-07 03:50 | -2.32677 | -70.25064 | 30900 ft | 409 kts | 148° |
| 2026-05-07 03:51 | -2.37548 | -70.22167 | 30899 ft | 410 kts | 148° |
| 2026-05-07 03:51 | -2.42443 | -70.19253 | 30899 ft | 408 kts | 148° |
| 2026-05-07 03:52 | -2.47331 | -70.16346 | 30899 ft | 409 kts | 149° |
| 2026-05-07 03:52 | -2.52223 | -70.13435 | 30900 ft | 409 kts | 148° |
| 2026-05-07 03:53 | -2.57113 | -70.10524 | 30899 ft | 409 kts | 148° |
| 2026-05-07 03:53 | -2.62004 | -70.07612 | 30899 ft | 409 kts | 148° |
| 2026-05-07 03:54 | -2.66898 | -70.04698 | 30899 ft | 410 kts | 148° |
| 2026-05-07 03:54 | -2.72152 | -70.02496 | 30899 ft | 413 kts | 165° |
| 2026-05-07 03:55 | -2.77850 | -70.01755 | 30900 ft | 413 kts | 174° |
| 2026-05-07 03:55 | -2.83592 | -70.01435 | 30899 ft | 413 kts | 175° |
| 2026-05-07 03:56 | -2.89294 | -70.01128 | 30899 ft | 413 kts | 175° |
| 2026-05-07 03:56 | -2.95038 | -70.00813 | 30899 ft | 413 kts | 175° |
| 2026-05-07 03:57 | -3.00791 | -70.00495 | 30899 ft | 414 kts | 175° |
| 2026-05-07 03:57 | -3.06532 | -70.00177 | 30900 ft | 413 kts | 175° |
| 2026-05-07 03:58 | -3.12243 | -69.99861 | 30899 ft | 413 kts | 175° |
| 2026-05-07 03:58 | -3.17989 | -69.99542 | 30899 ft | 413 kts | 175° |
| 2026-05-07 03:59 | -3.23719 | -69.99224 | 30899 ft | 412 kts | 175° |
| 2026-05-07 03:59 | -3.29432 | -69.98906 | 30899 ft | 411 kts | 175° |
| 2026-05-07 04:00 | -3.35160 | -69.98588 | 30900 ft | 412 kts | 175° |
| 2026-05-07 04:00 | -3.40916 | -69.98269 | 30899 ft | 414 kts | 175° |
| 2026-05-07 04:01 | -3.46611 | -69.97952 | 30899 ft | 412 kts | 175° |
| 2026-05-07 04:01 | -3.52361 | -69.97632 | 30899 ft | 412 kts | 175° |
| 2026-05-07 04:02 | -3.58100 | -69.97313 | 30900 ft | 413 kts | 175° |
| 2026-05-07 04:02 | -3.63844 | -69.96994 | 30899 ft | 413 kts | 175° |
| 2026-05-07 04:03 | -3.69585 | -69.96675 | 30900 ft | 413 kts | 175° |
| 2026-05-07 04:03 | -3.75317 | -69.96356 | 30899 ft | 412 kts | 175° |
| 2026-05-07 04:04 | -3.81037 | -69.96038 | 30899 ft | 410 kts | 175° |
| 2026-05-07 04:04 | -3.86703 | -69.95723 | 30899 ft | 410 kts | 175° |
| 2026-05-07 04:05 | -3.92425 | -69.95405 | 30899 ft | 411 kts | 175° |
| 2026-05-07 04:05 | -3.97208 | -69.95139 | 30899 ft | 412 kts | 175° |
| 2026-05-07 04:06 | -4.03865 | -69.94768 | 30899 ft | 412 kts | 175° |
| 2026-05-07 04:06 | -4.08663 | -69.94501 | 30899 ft | 412 kts | 175° |
| 2026-05-07 04:07 | -4.14372 | -69.94183 | 30899 ft | 411 kts | 175° |
| 2026-05-07 04:07 | -4.19982 | -69.93378 | 30899 ft | 409 kts | 165° |
| 2026-05-07 04:08 | -4.25407 | -69.91675 | 30899 ft | 409 kts | 160° |
| 2026-05-07 04:08 | -4.30797 | -69.89804 | 30899 ft | 410 kts | 161° |
| 2026-05-07 04:09 | -4.36179 | -69.87944 | 30899 ft | 409 kts | 161° |
| 2026-05-07 04:09 | -4.41567 | -69.86082 | 30895 ft | 413 kts | 161° |
| 2026-05-07 04:10 | -4.47063 | -69.84190 | 30899 ft | 422 kts | 162° |
| 2026-05-07 04:10 | -4.52675 | -69.82254 | 30900 ft | 427 kts | 161° |
| 2026-05-07 04:11 | -4.58274 | -69.80323 | 30899 ft | 425 kts | 161° |
| 2026-05-07 04:11 | -4.63857 | -69.78345 | 30899 ft | 426 kts | 160° |
| 2026-05-07 04:12 | -4.69426 | -69.76310 | 30899 ft | 426 kts | 161° |
| 2026-05-07 04:12 | -4.74956 | -69.74295 | 30899 ft | 426 kts | 161° |
| 2026-05-07 04:13 | -4.80529 | -69.72265 | 30899 ft | 426 kts | 161° |
| 2026-05-07 04:13 | -4.86093 | -69.70239 | 30899 ft | 426 kts | 161° |
| 2026-05-07 04:14 | -4.91664 | -69.68211 | 30899 ft | 425 kts | 161° |
| 2026-05-07 04:14 | -4.97236 | -69.66204 | 30899 ft | 425 kts | 161° |
| 2026-05-07 04:15 | -5.02818 | -69.64213 | 30899 ft | 425 kts | 161° |
| 2026-05-07 04:15 | -5.08397 | -69.62220 | 30900 ft | 425 kts | 161° |
| 2026-05-07 04:16 | -5.13974 | -69.60225 | 30899 ft | 425 kts | 161° |
| 2026-05-07 04:16 | -5.19512 | -69.58244 | 30899 ft | 425 kts | 161° |
| 2026-05-07 04:17 | -5.25089 | -69.56248 | 30899 ft | 425 kts | 161° |
| 2026-05-07 04:17 | -5.30664 | -69.54255 | 30899 ft | 425 kts | 161° |
| 2026-05-07 04:18 | -5.36244 | -69.52259 | 30899 ft | 425 kts | 161° |
| 2026-05-07 04:18 | -5.41823 | -69.50262 | 30899 ft | 425 kts | 161° |
| 2026-05-07 04:19 | -5.47394 | -69.48267 | 30899 ft | 425 kts | 161° |
| 2026-05-07 04:19 | -5.52981 | -69.46267 | 30899 ft | 425 kts | 161° |
| 2026-05-07 04:20 | -5.58519 | -69.44283 | 30900 ft | 425 kts | 161° |
| 2026-05-07 04:20 | -5.64100 | -69.42283 | 30899 ft | 425 kts | 161° |
| 2026-05-07 04:21 | -5.72464 | -69.39286 | 30899 ft | 425 kts | 161° |
| 2026-05-07 04:21 | -5.78027 | -69.37291 | 30899 ft | 425 kts | 161° |
| 2026-05-07 04:22 | -5.83590 | -69.35297 | 30899 ft | 424 kts | 161° |
| 2026-05-07 04:22 | -5.89153 | -69.33302 | 30899 ft | 424 kts | 161° |
| 2026-05-07 04:23 | -5.94680 | -69.31319 | 30899 ft | 424 kts | 161° |
| 2026-05-07 04:23 | -6.00253 | -69.29321 | 30899 ft | 425 kts | 161° |
| 2026-05-07 04:24 | -6.05817 | -69.27324 | 30899 ft | 425 kts | 161° |
| 2026-05-07 04:24 | -6.11390 | -69.25323 | 30899 ft | 424 kts | 161° |
| 2026-05-07 04:25 | -6.16953 | -69.23325 | 30899 ft | 425 kts | 161° |
| 2026-05-07 04:25 | -6.22491 | -69.21336 | 30899 ft | 424 kts | 161° |
| 2026-05-07 04:26 | -6.28047 | -69.19330 | 30899 ft | 424 kts | 161° |
| 2026-05-07 04:26 | -6.33609 | -69.17298 | 30899 ft | 424 kts | 161° |
| 2026-05-07 04:27 | -6.39153 | -69.15272 | 30899 ft | 423 kts | 161° |
| 2026-05-07 04:27 | -6.44677 | -69.13256 | 30899 ft | 421 kts | 161° |
| 2026-05-07 04:28 | -6.50199 | -69.11238 | 30899 ft | 421 kts | 161° |
| 2026-05-07 04:28 | -6.55689 | -69.09230 | 30899 ft | 419 kts | 161° |
| 2026-05-07 04:29 | -6.61139 | -69.07236 | 30899 ft | 420 kts | 161° |
| 2026-05-07 04:29 | -6.66631 | -69.05227 | 30899 ft | 420 kts | 161° |
| 2026-05-07 04:30 | -6.72128 | -69.03224 | 30899 ft | 420 kts | 162° |
| 2026-05-07 04:30 | -6.77642 | -69.01270 | 30900 ft | 419 kts | 162° |
| 2026-05-07 04:31 | -6.83147 | -68.99313 | 30899 ft | 420 kts | 162° |
| 2026-05-07 04:31 | -6.88658 | -68.97352 | 30899 ft | 419 kts | 162° |
| 2026-05-07 04:32 | -6.94151 | -68.95395 | 30899 ft | 419 kts | 162° |
| 2026-05-07 04:32 | -6.99663 | -68.93431 | 30899 ft | 420 kts | 162° |
| 2026-05-07 04:33 | -7.05177 | -68.91468 | 30900 ft | 419 kts | 162° |
| 2026-05-07 04:33 | -7.10609 | -68.89537 | 30899 ft | 412 kts | 161° |
| 2026-05-07 04:34 | -7.16001 | -68.87612 | 30899 ft | 412 kts | 161° |
| 2026-05-07 04:34 | -7.21418 | -68.85680 | 30901 ft | 413 kts | 162° |
| 2026-05-07 04:35 | -7.26806 | -68.83759 | 30899 ft | 408 kts | 161° |
| 2026-05-07 04:35 | -7.32132 | -68.81858 | 30899 ft | 409 kts | 161° |
| 2026-05-07 04:36 | -7.37493 | -68.79944 | 30899 ft | 409 kts | 161° |
| 2026-05-07 04:36 | -7.42854 | -68.78032 | 30900 ft | 408 kts | 161° |
| 2026-05-07 04:37 | -7.43493 | -68.77804 | 30899 ft | 409 kts | 161° |
| 2026-05-07 04:37 | -7.48585 | -68.75986 | 30899 ft | 408 kts | 161° |
| 2026-05-07 04:38 | -7.53948 | -68.74070 | 30899 ft | 408 kts | 161° |
| 2026-05-07 04:38 | -7.59295 | -68.72163 | 30899 ft | 405 kts | 160° |
| 2026-05-07 04:39 | -7.64576 | -68.70271 | 30899 ft | 405 kts | 160° |
| 2026-05-07 04:39 | -7.69894 | -68.68367 | 30899 ft | 405 kts | 160° |
| 2026-05-07 04:40 | -7.75216 | -68.66452 | 30899 ft | 406 kts | 160° |
| 2026-05-07 04:40 | -7.80532 | -68.64532 | 30899 ft | 405 kts | 159° |
| 2026-05-07 04:41 | -7.85811 | -68.62627 | 30899 ft | 407 kts | 159° |
| 2026-05-07 04:41 | -7.91174 | -68.60689 | 30900 ft | 406 kts | 159° |
| 2026-05-07 04:42 | -7.96462 | -68.58778 | 30899 ft | 405 kts | 159° |
| 2026-05-07 04:42 | -8.01791 | -68.56853 | 30899 ft | 406 kts | 159° |
| 2026-05-07 04:43 | -8.07117 | -68.54931 | 30900 ft | 406 kts | 159° |
| 2026-05-07 04:43 | -8.12441 | -68.53008 | 30899 ft | 406 kts | 159° |
| 2026-05-07 04:44 | -8.17728 | -68.51097 | 30899 ft | 406 kts | 159° |
| 2026-05-07 04:44 | -8.23053 | -68.49172 | 30899 ft | 406 kts | 159° |
| 2026-05-07 04:45 | -8.28364 | -68.47245 | 30899 ft | 406 kts | 160° |
| 2026-05-07 04:45 | -8.33702 | -68.45317 | 30899 ft | 407 kts | 160° |
| 2026-05-07 04:46 | -8.39041 | -68.43385 | 30899 ft | 407 kts | 160° |
| 2026-05-07 04:46 | -8.43474 | -68.41781 | 30899 ft | 407 kts | 160° |
| 2026-05-07 04:47 | -8.48823 | -68.39844 | 30899 ft | 407 kts | 161° |
| 2026-05-07 04:47 | -8.55029 | -68.37597 | 30899 ft | 407 kts | 161° |
| 2026-05-07 04:48 | -8.60363 | -68.35665 | 30899 ft | 407 kts | 161° |
| 2026-05-07 04:48 | -8.64805 | -68.34052 | 30900 ft | 409 kts | 161° |
| 2026-05-07 04:49 | -8.70166 | -68.32110 | 30899 ft | 409 kts | 161° |
| 2026-05-07 04:49 | -8.75501 | -68.30178 | 30899 ft | 407 kts | 161° |
| 2026-05-07 04:50 | -8.80838 | -68.28238 | 30899 ft | 407 kts | 161° |
| 2026-05-07 04:50 | -8.86187 | -68.26297 | 30899 ft | 408 kts | 161° |
| 2026-05-07 04:51 | -8.91521 | -68.24362 | 30899 ft | 408 kts | 161° |
| 2026-05-07 04:51 | -8.96835 | -68.22434 | 30899 ft | 407 kts | 161° |
| 2026-05-07 04:52 | -9.02179 | -68.20493 | 30899 ft | 408 kts | 161° |
| 2026-05-07 04:52 | -9.07544 | -68.18542 | 30899 ft | 412 kts | 162° |
| 2026-05-07 04:53 | -9.12942 | -68.16580 | 30899 ft | 411 kts | 162° |
| 2026-05-07 04:53 | -9.18337 | -68.14617 | 30900 ft | 413 kts | 162° |
| 2026-05-07 04:54 | -9.23749 | -68.12648 | 30899 ft | 414 kts | 162° |
| 2026-05-07 04:54 | -9.29180 | -68.10748 | 30899 ft | 412 kts | 163° |
| 2026-05-07 04:55 | -9.34606 | -68.08883 | 30900 ft | 414 kts | 163° |
| 2026-05-07 04:55 | -9.40018 | -68.07015 | 30899 ft | 412 kts | 163° |
| 2026-05-07 04:56 | -9.45447 | -68.05138 | 30899 ft | 412 kts | 163° |
| 2026-05-07 04:56 | -9.50851 | -68.03267 | 30899 ft | 412 kts | 163° |
| 2026-05-07 04:57 | -9.56300 | -68.01381 | 30899 ft | 412 kts | 163° |
| 2026-05-07 04:57 | -9.61744 | -67.99502 | 30899 ft | 413 kts | 163° |
| 2026-05-07 04:58 | -9.67177 | -67.97621 | 30899 ft | 414 kts | 163° |
| 2026-05-07 04:58 | -9.72643 | -67.95726 | 30900 ft | 417 kts | 163° |
| 2026-05-07 04:59 | -9.78147 | -67.93817 | 30900 ft | 418 kts | 163° |
| 2026-05-07 04:59 | -9.83637 | -67.91913 | 30899 ft | 416 kts | 163° |
| 2026-05-07 05:00 | -9.89002 | -67.89663 | 30900 ft | 419 kts | 155° |
| 2026-05-07 05:00 | -9.94105 | -67.86763 | 30900 ft | 421 kts | 152° |
| 2026-05-07 05:01 | -9.99125 | -67.83746 | 30899 ft | 417 kts | 152° |
| 2026-05-07 05:01 | -10.04144 | -67.80754 | 30899 ft | 420 kts | 152° |
| 2026-05-07 05:02 | -10.09206 | -67.77739 | 30899 ft | 422 kts | 150° |
| 2026-05-07 05:02 | -10.14240 | -67.74741 | 30899 ft | 422 kts | 150° |
| 2026-05-07 05:03 | -10.19306 | -67.71733 | 30899 ft | 422 kts | 150° |
| 2026-05-07 05:03 | -10.24335 | -67.68749 | 30899 ft | 416 kts | 150° |
| 2026-05-07 05:04 | -10.29338 | -67.65776 | 30898 ft | 417 kts | 150° |
| 2026-05-07 05:04 | -10.34391 | -67.62773 | 30899 ft | 422 kts | 150° |
| 2026-05-07 05:05 | -10.39446 | -67.59770 | 30900 ft | 419 kts | 150° |
| 2026-05-07 05:05 | -10.44420 | -67.56810 | 30899 ft | 416 kts | 150° |
| 2026-05-07 05:06 | -10.49473 | -67.53803 | 30900 ft | 421 kts | 150° |
| 2026-05-07 05:06 | -10.54512 | -67.50803 | 30899 ft | 421 kts | 150° |
| 2026-05-07 05:07 | -10.59550 | -67.47808 | 30899 ft | 414 kts | 150° |
| 2026-05-07 05:07 | -10.64493 | -67.44859 | 30899 ft | 411 kts | 149° |
| 2026-05-07 05:08 | -10.69428 | -67.41914 | 30899 ft | 416 kts | 150° |
| 2026-05-07 05:08 | -10.74433 | -67.38938 | 30900 ft | 414 kts | 150° |
| 2026-05-07 05:09 | -10.79364 | -67.35996 | 30899 ft | 409 kts | 149° |
| 2026-05-07 05:09 | -10.84291 | -67.33046 | 30900 ft | 413 kts | 150° |
| 2026-05-07 05:10 | -10.89243 | -67.30092 | 30899 ft | 414 kts | 151° |
| 2026-05-07 05:10 | -10.94189 | -67.27145 | 30899 ft | 408 kts | 150° |
| 2026-05-07 05:11 | -10.99078 | -67.24220 | 30899 ft | 409 kts | 150° |
| 2026-05-07 05:11 | -11.03993 | -67.21284 | 30899 ft | 409 kts | 150° |
| 2026-05-07 05:12 | -11.08903 | -67.18350 | 30899 ft | 408 kts | 150° |
| 2026-05-07 05:12 | -11.13797 | -67.15422 | 30899 ft | 408 kts | 150° |
| 2026-05-07 05:13 | -11.18713 | -67.12479 | 30900 ft | 412 kts | 150° |
| 2026-05-07 05:13 | -11.23623 | -67.09540 | 30899 ft | 412 kts | 150° |
| 2026-05-07 05:14 | -11.28565 | -67.06585 | 30899 ft | 409 kts | 150° |
| 2026-05-07 05:14 | -11.33470 | -67.03644 | 30899 ft | 411 kts | 150° |
| 2026-05-07 05:15 | -11.38399 | -67.00699 | 30899 ft | 409 kts | 149° |
| 2026-05-07 05:15 | -11.43306 | -66.97753 | 30899 ft | 411 kts | 149° |
| 2026-05-07 05:16 | -11.48217 | -66.94805 | 30899 ft | 412 kts | 149° |
| 2026-05-07 05:16 | -11.53155 | -66.91841 | 30899 ft | 411 kts | 149° |
| 2026-05-07 05:17 | -11.58120 | -66.88861 | 30899 ft | 412 kts | 149° |
| 2026-05-07 05:17 | -11.63032 | -66.85910 | 30899 ft | 412 kts | 149° |
| 2026-05-07 05:18 | -11.67964 | -66.82948 | 30899 ft | 412 kts | 149° |
| 2026-05-07 05:18 | -11.72898 | -66.79982 | 30899 ft | 411 kts | 149° |
| 2026-05-07 05:19 | -11.77845 | -66.77007 | 30899 ft | 413 kts | 149° |
| 2026-05-07 05:19 | -11.82816 | -66.74017 | 30899 ft | 414 kts | 150° |
| 2026-05-07 05:20 | -11.87761 | -66.71042 | 30899 ft | 414 kts | 150° |
| 2026-05-07 05:20 | -11.92731 | -66.68050 | 30899 ft | 414 kts | 150° |
| 2026-05-07 05:21 | -12.00183 | -66.63561 | 30899 ft | 414 kts | 150° |
| 2026-05-07 05:22 | -12.05145 | -66.60571 | 30899 ft | 414 kts | 150° |
| 2026-05-07 05:22 | -12.10083 | -66.57593 | 30899 ft | 414 kts | 150° |
| 2026-05-07 05:23 | -12.15068 | -66.54586 | 30899 ft | 413 kts | 150° |
| 2026-05-07 05:23 | -12.19988 | -66.51618 | 30899 ft | 413 kts | 150° |
| 2026-05-07 05:24 | -12.24936 | -66.48631 | 30899 ft | 413 kts | 150° |
| 2026-05-07 05:24 | -12.29880 | -66.45644 | 30899 ft | 413 kts | 150° |
| 2026-05-07 05:25 | -12.34802 | -66.42672 | 30899 ft | 409 kts | 150° |
| 2026-05-07 05:25 | -12.39697 | -66.39711 | 30898 ft | 409 kts | 150° |
| 2026-05-07 05:26 | -12.44640 | -66.36721 | 30899 ft | 414 kts | 150° |
| 2026-05-07 05:26 | -12.49591 | -66.33729 | 30901 ft | 411 kts | 150° |
| 2026-05-07 05:27 | -12.54489 | -66.30771 | 30899 ft | 404 kts | 149° |
| 2026-05-07 05:27 | -12.59318 | -66.27840 | 30899 ft | 404 kts | 149° |
| 2026-05-07 05:28 | -12.64117 | -66.24931 | 30899 ft | 403 kts | 149° |
| 2026-05-07 05:28 | -12.68936 | -66.22013 | 30899 ft | 401 kts | 149° |
| 2026-05-07 05:29 | -12.73735 | -66.19099 | 30899 ft | 401 kts | 149° |
| 2026-05-07 05:29 | -12.78559 | -66.16167 | 30900 ft | 403 kts | 150° |
| 2026-05-07 05:30 | -12.83371 | -66.13250 | 30899 ft | 402 kts | 150° |
| 2026-05-07 05:30 | -12.88178 | -66.10338 | 30900 ft | 401 kts | 149° |
| 2026-05-07 05:31 | -12.92979 | -66.07419 | 30899 ft | 401 kts | 148° |
| 2026-05-07 05:31 | -12.97754 | -66.04515 | 30900 ft | 401 kts | 148° |
| 2026-05-07 05:32 | -13.01776 | -66.02068 | 30899 ft | 401 kts | 148° |
| 2026-05-07 05:32 | -13.07352 | -65.98676 | 30899 ft | 401 kts | 148° |
| 2026-05-07 05:33 | -13.11336 | -65.96252 | 30899 ft | 401 kts | 148° |
| 2026-05-07 05:33 | -13.16138 | -65.93328 | 30899 ft | 400 kts | 149° |
| 2026-05-07 05:34 | -13.20925 | -65.90411 | 30900 ft | 400 kts | 149° |
| 2026-05-07 05:34 | -13.25710 | -65.87496 | 30899 ft | 400 kts | 148° |
| 2026-05-07 05:35 | -13.30513 | -65.84568 | 30899 ft | 401 kts | 148° |
| 2026-05-07 05:35 | -13.35301 | -65.81648 | 30900 ft | 401 kts | 148° |
| 2026-05-07 05:36 | -13.40065 | -65.78740 | 30899 ft | 400 kts | 148° |
| 2026-05-07 05:36 | -13.44858 | -65.75814 | 30899 ft | 401 kts | 148° |
| 2026-05-07 05:37 | -13.49658 | -65.72882 | 30899 ft | 400 kts | 148° |
| 2026-05-07 05:37 | -13.54420 | -65.69973 | 30900 ft | 401 kts | 148° |
| 2026-05-07 05:38 | -13.59207 | -65.67045 | 30899 ft | 400 kts | 148° |
| 2026-05-07 05:38 | -13.63992 | -65.64118 | 30899 ft | 399 kts | 148° |
| 2026-05-07 05:39 | -13.68761 | -65.61187 | 30899 ft | 400 kts | 150° |
| 2026-05-07 05:39 | -13.73561 | -65.58247 | 30899 ft | 404 kts | 151° |
| 2026-05-07 05:40 | -13.78453 | -65.55256 | 30900 ft | 412 kts | 151° |
| 2026-05-07 05:40 | -13.83374 | -65.52252 | 30899 ft | 408 kts | 150° |
| 2026-05-07 05:41 | -13.88225 | -65.49277 | 30899 ft | 403 kts | 150° |
| 2026-05-07 05:41 | -13.93041 | -65.46320 | 30899 ft | 410 kts | 150° |
| 2026-05-07 05:42 | -13.97998 | -65.43278 | 30902 ft | 415 kts | 150° |
| 2026-05-07 05:42 | -14.02927 | -65.40253 | 30900 ft | 409 kts | 149° |
| 2026-05-07 05:43 | -14.07815 | -65.37246 | 30900 ft | 411 kts | 149° |
| 2026-05-07 05:43 | -14.12691 | -65.34248 | 30899 ft | 411 kts | 150° |
| 2026-05-07 05:44 | -14.17611 | -65.31230 | 30899 ft | 408 kts | 149° |
| 2026-05-07 05:44 | -14.22474 | -65.28235 | 30899 ft | 407 kts | 149° |
| 2026-05-07 05:45 | -14.27334 | -65.25240 | 30899 ft | 405 kts | 149° |
| 2026-05-07 05:45 | -14.32171 | -65.22260 | 30899 ft | 405 kts | 149° |
| 2026-05-07 05:46 | -14.37009 | -65.19279 | 30899 ft | 405 kts | 149° |
| 2026-05-07 05:46 | -14.41846 | -65.16296 | 30900 ft | 405 kts | 149° |
| 2026-05-07 05:47 | -14.46654 | -65.13321 | 30900 ft | 406 kts | 150° |
| 2026-05-07 05:47 | -14.51503 | -65.10332 | 30899 ft | 407 kts | 151° |
| 2026-05-07 05:48 | -14.56382 | -65.07322 | 30899 ft | 407 kts | 151° |
| 2026-05-07 05:48 | -14.61248 | -65.04315 | 30899 ft | 410 kts | 152° |
| 2026-05-07 05:49 | -14.66153 | -65.01284 | 30899 ft | 408 kts | 151° |
| 2026-05-07 05:49 | -14.71016 | -64.98277 | 30900 ft | 409 kts | 151° |
| 2026-05-07 05:50 | -14.75907 | -64.95251 | 30899 ft | 410 kts | 151° |
| 2026-05-07 05:50 | -14.80789 | -64.92228 | 30900 ft | 414 kts | 152° |
| 2026-05-07 05:51 | -14.85757 | -64.89151 | 30900 ft | 420 kts | 151° |
| 2026-05-07 05:51 | -14.90744 | -64.86060 | 30899 ft | 415 kts | 151° |
| 2026-05-07 05:52 | -14.95700 | -64.82992 | 30899 ft | 416 kts | 150° |
| 2026-05-07 05:52 | -15.00691 | -64.79893 | 30899 ft | 418 kts | 150° |
| 2026-05-07 05:53 | -15.05674 | -64.76797 | 30899 ft | 417 kts | 150° |
| 2026-05-07 05:53 | -15.10620 | -64.73724 | 30899 ft | 417 kts | 150° |
| 2026-05-07 05:54 | -15.15593 | -64.70633 | 30899 ft | 415 kts | 149° |
| 2026-05-07 05:54 | -15.20559 | -64.67545 | 30900 ft | 415 kts | 149° |
| 2026-05-07 05:55 | -15.25491 | -64.64475 | 30899 ft | 414 kts | 149° |
| 2026-05-07 05:55 | -15.30435 | -64.61397 | 30900 ft | 414 kts | 149° |
| 2026-05-07 05:56 | -15.35334 | -64.58345 | 30899 ft | 413 kts | 149° |
| 2026-05-07 05:56 | -15.40263 | -64.55275 | 30899 ft | 411 kts | 149° |
| 2026-05-07 05:57 | -15.45178 | -64.52209 | 30899 ft | 411 kts | 149° |
| 2026-05-07 05:57 | -15.50086 | -64.49145 | 30900 ft | 412 kts | 149° |
| 2026-05-07 05:58 | -15.54963 | -64.46101 | 30899 ft | 411 kts | 149° |
| 2026-05-07 05:58 | -15.59871 | -64.43034 | 30900 ft | 413 kts | 150° |
| 2026-05-07 05:59 | -15.64794 | -64.39958 | 30900 ft | 412 kts | 150° |
| 2026-05-07 05:59 | -15.69689 | -64.36897 | 30899 ft | 409 kts | 150° |
| 2026-05-07 06:00 | -15.74555 | -64.33852 | 30899 ft | 410 kts | 150° |
| 2026-05-07 06:00 | -15.79437 | -64.30796 | 30899 ft | 412 kts | 150° |
| 2026-05-07 06:01 | -15.84348 | -64.27720 | 30899 ft | 410 kts | 150° |
| 2026-05-07 06:01 | -15.89232 | -64.24658 | 30899 ft | 410 kts | 150° |
| 2026-05-07 06:02 | -15.94128 | -64.21588 | 30902 ft | 412 kts | 150° |
| 2026-05-07 06:02 | -15.99001 | -64.18531 | 30899 ft | 406 kts | 150° |
| 2026-05-07 06:03 | -16.03845 | -64.15489 | 30899 ft | 406 kts | 150° |
| 2026-05-07 06:03 | -16.08658 | -64.12465 | 30899 ft | 406 kts | 150° |
| 2026-05-07 06:04 | -16.13483 | -64.09433 | 30900 ft | 404 kts | 150° |
| 2026-05-07 06:04 | -16.18269 | -64.06423 | 30860 ft | 402 kts | 150° |
| 2026-05-07 06:04 | -16.20659 | -64.04919 | 30578 ft | 401 kts | 150° |
| 2026-05-07 06:05 | -16.23026 | -64.03429 | 30218 ft | 395 kts | 150° |
| 2026-05-07 06:05 | -16.25364 | -64.01957 | 29797 ft | 392 kts | 150° |
| 2026-05-07 06:05 | -16.27693 | -64.00492 | 29388 ft | 389 kts | 149° |
| 2026-05-07 06:05 | -16.30003 | -63.99036 | 28976 ft | 387 kts | 149° |
| 2026-05-07 06:06 | -16.32301 | -63.97587 | 28561 ft | 385 kts | 149° |
| 2026-05-07 06:06 | -16.34557 | -63.96165 | 28153 ft | 383 kts | 150° |
| 2026-05-07 06:06 | -16.36827 | -63.94738 | 27753 ft | 380 kts | 149° |
| 2026-05-07 06:06 | -16.39087 | -63.93313 | 27347 ft | 377 kts | 149° |
| 2026-05-07 06:07 | -16.41328 | -63.91898 | 26944 ft | 375 kts | 148° |
| 2026-05-07 06:07 | -16.43555 | -63.90492 | 26542 ft | 373 kts | 148° |
| 2026-05-07 06:07 | -16.45764 | -63.89092 | 26139 ft | 371 kts | 149° |
| 2026-05-07 06:07 | -16.47963 | -63.87704 | 25738 ft | 369 kts | 149° |
| 2026-05-07 06:08 | -16.50150 | -63.86323 | 25336 ft | 367 kts | 150° |
| 2026-05-07 06:08 | -16.52335 | -63.84943 | 24931 ft | 365 kts | 150° |
| 2026-05-07 06:08 | -16.54504 | -63.83583 | 24552 ft | 363 kts | 149° |
| 2026-05-07 06:08 | -16.56631 | -63.82237 | 24159 ft | 360 kts | 149° |
| 2026-05-07 06:09 | -16.58768 | -63.80885 | 23764 ft | 358 kts | 149° |
| 2026-05-07 06:09 | -16.60894 | -63.79539 | 23369 ft | 356 kts | 149° |
| 2026-05-07 06:09 | -16.63005 | -63.78197 | 22968 ft | 355 kts | 149° |
| 2026-05-07 06:09 | -16.65113 | -63.76863 | 22570 ft | 353 kts | 150° |
| 2026-05-07 06:10 | -16.67215 | -63.75535 | 22174 ft | 352 kts | 150° |
| 2026-05-07 06:10 | -16.69299 | -63.74220 | 21791 ft | 349 kts | 149° |
| 2026-05-07 06:10 | -16.71366 | -63.72911 | 21402 ft | 347 kts | 149° |
| 2026-05-07 06:10 | -16.73431 | -63.71602 | 21011 ft | 345 kts | 149° |
| 2026-05-07 06:11 | -16.75481 | -63.70304 | 20623 ft | 343 kts | 149° |
| 2026-05-07 06:11 | -16.77515 | -63.69015 | 20238 ft | 341 kts | 149° |
| 2026-05-07 06:11 | -16.79546 | -63.67727 | 19854 ft | 339 kts | 149° |
| 2026-05-07 06:11 | -16.81556 | -63.66453 | 19474 ft | 338 kts | 149° |
| 2026-05-07 06:12 | -16.83533 | -63.65199 | 19101 ft | 336 kts | 149° |
| 2026-05-07 06:12 | -16.85526 | -63.63935 | 18727 ft | 333 kts | 149° |
| 2026-05-07 06:12 | -16.87501 | -63.62683 | 18356 ft | 331 kts | 149° |
| 2026-05-07 06:12 | -16.89461 | -63.61431 | 17984 ft | 330 kts | 150° |
| 2026-05-07 06:13 | -16.91414 | -63.60193 | 17617 ft | 328 kts | 150° |
| 2026-05-07 06:13 | -16.93356 | -63.58961 | 17258 ft | 325 kts | 150° |
| 2026-05-07 06:13 | -16.95291 | -63.57734 | 16896 ft | 323 kts | 150° |
| 2026-05-07 06:13 | -16.97210 | -63.56516 | 16537 ft | 321 kts | 150° |
| 2026-05-07 06:14 | -16.99115 | -63.55306 | 16183 ft | 319 kts | 150° |
| 2026-05-07 06:14 | -17.01010 | -63.54102 | 15832 ft | 317 kts | 150° |
| 2026-05-07 06:14 | -17.02889 | -63.52908 | 15480 ft | 316 kts | 150° |
| 2026-05-07 06:14 | -17.04759 | -63.51719 | 15133 ft | 314 kts | 150° |
| 2026-05-07 06:15 | -17.06622 | -63.50534 | 14798 ft | 312 kts | 150° |
| 2026-05-07 06:15 | -17.08463 | -63.49363 | 14453 ft | 310 kts | 151° |
| 2026-05-07 06:15 | -17.10279 | -63.48207 | 14117 ft | 308 kts | 151° |
| 2026-05-07 06:15 | -17.12111 | -63.47042 | 13785 ft | 306 kts | 151° |
| 2026-05-07 06:16 | -17.13922 | -63.45888 | 13442 ft | 305 kts | 150° |
| 2026-05-07 06:16 | -17.15737 | -63.44754 | 13152 ft | 301 kts | 149° |
| 2026-05-07 06:16 | -17.17517 | -63.43624 | 12829 ft | 299 kts | 148° |
| 2026-05-07 06:16 | -17.19286 | -63.42491 | 12513 ft | 297 kts | 148° |
| 2026-05-07 06:17 | -17.21043 | -63.41365 | 12201 ft | 295 kts | 148° |
| 2026-05-07 06:17 | -17.22789 | -63.40248 | 11884 ft | 293 kts | 148° |
| 2026-05-07 06:17 | -17.24515 | -63.39125 | 11534 ft | 293 kts | 150° |
| 2026-05-07 06:17 | -17.26252 | -63.38008 | 11189 ft | 293 kts | 152° |
| 2026-05-07 06:18 | -17.28001 | -63.36899 | 10859 ft | 293 kts | 152° |
| 2026-05-07 06:18 | -17.29744 | -63.35794 | 10559 ft | 292 kts | 152° |
| 2026-05-07 06:18 | -17.31473 | -63.34695 | 10256 ft | 291 kts | 152° |
| 2026-05-07 06:18 | -17.33196 | -63.33621 | 10068 ft | 284 kts | 150° |
| 2026-05-07 06:19 | -17.34838 | -63.32575 | 9991 ft | 274 kts | 149° |
| 2026-05-07 06:19 | -17.36459 | -63.31538 | 9919 ft | 265 kts | 149° |
| 2026-05-07 06:19 | -17.38001 | -63.30553 | 9690 ft | 263 kts | 149° |
| 2026-05-07 06:19 | -17.39555 | -63.29558 | 9409 ft | 262 kts | 149° |
| 2026-05-07 06:20 | -17.41110 | -63.28567 | 9127 ft | 262 kts | 148° |
| 2026-05-07 06:20 | -17.42631 | -63.27583 | 8733 ft | 255 kts | 149° |
| 2026-05-07 06:20 | -17.44180 | -63.26574 | 8263 ft | 263 kts | 151° |
| 2026-05-07 06:20 | -17.45211 | -63.25918 | 8190 ft | 259 kts | 152° |
| 2026-05-07 06:21 | -17.46735 | -63.24950 | 7983 ft | 252 kts | 152° |
| 2026-05-07 06:21 | -17.48628 | -63.23744 | 7856 ft | 227 kts | 153° |
| 2026-05-07 06:21 | -17.49515 | -63.23184 | 7794 ft | 213 kts | 152° |
| 2026-05-07 06:21 | -17.50737 | -63.22426 | 7659 ft | 196 kts | 149° |
| 2026-05-07 06:22 | -17.51850 | -63.21709 | 7511 ft | 181 kts | 147° |
| 2026-05-07 06:22 | -17.53947 | -63.20352 | 6806 ft | 179 kts | 147° |
| 2026-05-07 06:22 | -17.55026 | -63.19657 | 6564 ft | 179 kts | 147° |
| 2026-05-07 06:23 | -17.56067 | -63.18987 | 6342 ft | 178 kts | 147° |
| 2026-05-07 06:23 | -17.57119 | -63.18312 | 6117 ft | 176 kts | 147° |
| 2026-05-07 06:23 | -17.58161 | -63.17644 | 5890 ft | 175 kts | 148° |
| 2026-05-07 06:23 | -17.59197 | -63.16981 | 5663 ft | 174 kts | 148° |
| 2026-05-07 06:24 | -17.60233 | -63.16318 | 5432 ft | 173 kts | 147° |
| 2026-05-07 06:24 | -17.61260 | -63.15660 | 5202 ft | 172 kts | 147° |
| 2026-05-07 06:24 | -17.62259 | -63.15008 | 4978 ft | 170 kts | 143° |
| 2026-05-07 06:24 | -17.63101 | -63.14152 | 4871 ft | 169 kts | 130° |
| 2026-05-07 06:25 | -17.63816 | -63.13172 | 4791 ft | 170 kts | 126° |
| 2026-05-07 06:25 | -17.64487 | -63.12162 | 4765 ft | 168 kts | 125° |
| 2026-05-07 06:25 | -17.65153 | -63.11155 | 4711 ft | 169 kts | 126° |
| 2026-05-07 06:25 | -17.65832 | -63.10142 | 4648 ft | 170 kts | 126° |
| 2026-05-07 06:26 | -17.66518 | -63.09128 | 4582 ft | 171 kts | 126° |
| 2026-05-07 06:26 | -17.67210 | -63.08089 | 4465 ft | 179 kts | 128° |
| 2026-05-07 06:26 | -17.67940 | -63.07022 | 4431 ft | 181 kts | 129° |
| 2026-05-07 06:26 | -17.68685 | -63.05950 | 4362 ft | 182 kts | 128° |
| 2026-05-07 06:27 | -17.69410 | -63.04894 | 4284 ft | 179 kts | 127° |
| 2026-05-07 06:27 | -17.70134 | -63.03839 | 4207 ft | 177 kts | 127° |
| 2026-05-07 06:27 | -17.70851 | -63.02795 | 4133 ft | 176 kts | 127° |
| 2026-05-07 06:27 | -17.71565 | -63.01753 | 4060 ft | 176 kts | 127° |
| 2026-05-07 06:28 | -17.72277 | -63.00713 | 3986 ft | 176 kts | 127° |
| 2026-05-07 06:28 | -17.73129 | -62.99802 | 3779 ft | 175 kts | 154° |
| 2026-05-07 06:28 | -17.74280 | -62.99769 | 3632 ft | 168 kts | 204° |
| 2026-05-07 06:28 | -17.75024 | -63.00670 | 3546 ft | 168 kts | 245° |
| 2026-05-07 06:29 | -17.75450 | -63.01808 | 3480 ft | 166 kts | 247° |
| 2026-05-07 06:29 | -17.75842 | -63.02918 | 3405 ft | 157 kts | 249° |
| 2026-05-07 06:29 | -17.76197 | -63.03959 | 3317 ft | 152 kts | 250° |
| 2026-05-07 06:29 | -17.76291 | -63.05040 | 3202 ft | 155 kts | 289° |
| 2026-05-07 06:30 | -17.75602 | -63.05913 | 3207 ft | 158 kts | 314° |
| 2026-05-07 06:30 | -17.74727 | -63.06629 | 3139 ft | 160 kts | 322° |
| 2026-05-07 06:30 | -17.73797 | -63.07268 | 3060 ft | 158 kts | 325° |
| 2026-05-07 06:30 | -17.72889 | -63.07876 | 2874 ft | 152 kts | 325° |
| 2026-05-07 06:31 | -17.72002 | -63.08472 | 2667 ft | 150 kts | 325° |
| 2026-05-07 06:31 | -17.71128 | -63.09060 | 2464 ft | 147 kts | 325° |
| 2026-05-07 06:31 | -17.70284 | -63.09628 | 2272 ft | 145 kts | 325° |
| 2026-05-07 06:31 | -17.69444 | -63.10193 | 2082 ft | 143 kts | 325° |
| 2026-05-07 06:32 | -17.68611 | -63.10754 | 1895 ft | 142 kts | 325° |
| 2026-05-07 06:32 | -17.67777 | -63.11315 | 1707 ft | 142 kts | 325° |
| 2026-05-07 06:32 | -17.66945 | -63.11875 | 1519 ft | 142 kts | 325° |
| 2026-05-07 06:32 | -17.66119 | -63.12428 | 1337 ft | 141 kts | 326° |
| 2026-05-07 06:33 | -17.65309 | -63.12975 | 1234 ft | 132 kts | 324° |
| 2026-05-07 06:33 | -17.64763 | -63.13348 | 1232 ft | 56 kts | 325° |
| 2026-05-07 06:33 | -17.64488 | -63.13536 | 1232 ft | 44 kts | 327° |
| 2026-05-07 06:33 | -17.64255 | -63.13688 | 1232 ft | 36 kts | 327° |
| 2026-05-07 06:34 | -17.64057 | -63.13823 | 1232 ft | 32 kts | 326° |
| 2026-05-07 06:34 | -17.63919 | -63.13917 | 1232 ft | 15 kts | 322° |
| 2026-05-07 06:34 | -17.63921 | -63.14010 | 1232 ft | 14 kts | 238° |
| 2026-05-07 06:34 | -17.63984 | -63.14076 | 1232 ft | 13 kts | 180° |
| 2026-05-07 06:35 | -17.64065 | -63.14033 | 1232 ft | 16 kts | 147° |
| 2026-05-07 06:35 | -17.64186 | -63.13951 | 1232 ft | 22 kts | 147° |
| 2026-05-07 06:35 | -17.64312 | -63.13868 | 1232 ft | 21 kts | 149° |
| 2026-05-07 06:35 | -17.64428 | -63.13791 | 1232 ft | 19 kts | 147° |
| 2026-05-07 06:36 | -17.64534 | -63.13720 | 1232 ft | 18 kts | 147° |
| 2026-05-07 06:36 | -17.64635 | -63.13651 | 1232 ft | 17 kts | 147° |
| 2026-05-07 06:36 | -17.64731 | -63.13587 | 1232 ft | 16 kts | 147° |
| 2026-05-07 06:36 | -17.64821 | -63.13526 | 1232 ft | 15 kts | 147° |
| 2026-05-07 06:37 | -17.64905 | -63.13469 | 1232 ft | 14 kts | 146° |
| 2026-05-07 06:37 | -17.64983 | -63.13415 | 1232 ft | 13 kts | 146° |
| 2026-05-07 06:37 | -17.65055 | -63.13365 | 1232 ft | 12 kts | 146° |
| 2026-05-07 06:37 | -17.65125 | -63.13320 | 1232 ft | 11 kts | 171° |
| 2026-05-07 06:38 | -17.65192 | -63.13358 | 1232 ft | 11 kts | 234° |
| 2026-05-07 06:38 | -17.65234 | -63.13422 | 1232 ft | 11 kts | 235° |
| 2026-05-07 06:38 | -17.65274 | -63.13484 | 1232 ft | 10 kts | 235° |
| 2026-05-07 06:38 | -17.65305 | -63.13532 | 1232 ft | 1 kts | 236° |